createdAt,value
2019-05-19T00:01:44.585Z,14.50
2019-05-19T00:04:13.098Z,14.50
2019-05-19T00:06:41.561Z,14.50
2019-05-19T00:09:10.131Z,14.40
2019-05-19T00:11:38.587Z,14.40
2019-05-19T00:14:07.107Z,14.40
2019-05-19T00:16:35.552Z,14.30
2019-05-19T00:19:04.134Z,14.30
2019-05-19T00:21:32.591Z,14.30
2019-05-19T00:24:01.028Z,14.20
2019-05-19T00:26:29.545Z,14.20
2019-05-19T00:28:57.967Z,14.20
2019-05-19T00:31:26.429Z,14.10
2019-05-19T00:33:54.883Z,14.10
2019-05-19T00:36:23.339Z,14.10
2019-05-19T00:38:51.777Z,14.10
2019-05-19T00:41:20.317Z,14.00
2019-05-19T00:43:49.003Z,14.00
2019-05-19T00:46:17.457Z,14.00
2019-05-19T00:48:46.150Z,13.90
2019-05-19T00:51:14.940Z,13.90
2019-05-19T00:53:43.368Z,13.90
2019-05-19T00:56:12.439Z,13.90
2019-05-19T00:58:41.468Z,13.90
2019-05-19T01:01:09.907Z,13.90
2019-05-19T01:03:38.373Z,13.80
2019-05-19T01:06:06.799Z,13.80
2019-05-19T01:08:35.261Z,13.80
2019-05-19T01:11:03.693Z,13.80
2019-05-19T01:13:32.151Z,13.80
2019-05-19T01:16:00.588Z,13.70
2019-05-19T01:18:29.054Z,13.70
2019-05-19T01:20:57.720Z,13.70
2019-05-19T01:23:26.177Z,13.70
2019-05-19T01:25:54.603Z,13.70
2019-05-19T01:28:23.080Z,13.60
2019-05-19T01:30:51.510Z,13.60
2019-05-19T01:33:19.983Z,13.60
2019-05-19T01:35:48.434Z,13.60
2019-05-19T01:38:16.903Z,13.60
2019-05-19T01:40:45.334Z,13.60
2019-05-19T01:43:13.860Z,13.60
2019-05-19T01:45:42.406Z,13.60
2019-05-19T01:48:10.888Z,13.60
2019-05-19T01:50:39.463Z,13.60
2019-05-19T01:53:08.003Z,13.50
2019-05-19T01:55:36.444Z,13.50
2019-05-19T01:58:04.887Z,13.50
2019-05-19T02:00:33.514Z,13.50
2019-05-19T02:03:01.975Z,13.40
2019-05-19T02:05:30.395Z,13.40
2019-05-19T02:07:58.863Z,13.40
2019-05-19T02:10:27.311Z,13.40
2019-05-19T02:12:55.752Z,13.40
2019-05-19T02:15:24.344Z,13.40
2019-05-19T02:17:52.763Z,13.40
2019-05-19T02:20:32.697Z,13.30
2019-05-19T02:22:51.615Z,13.40
2019-05-19T02:25:20.459Z,13.40
2019-05-19T02:27:48.966Z,13.30
2019-05-19T02:30:17.760Z,13.30
2019-05-19T02:32:46.197Z,13.20
2019-05-19T02:35:15.859Z,13.20
2019-05-19T02:37:44.304Z,13.10
2019-05-19T02:40:13.209Z,13.10
2019-05-19T02:42:42.849Z,13.10
2019-05-19T02:45:11.752Z,13.00
2019-05-19T02:47:42.791Z,13.00
2019-05-19T02:50:12.789Z,13.00
2019-05-19T02:52:41.886Z,13.00
2019-05-19T02:55:10.521Z,12.90
2019-05-19T02:57:40.491Z,12.90
2019-05-19T03:00:10.735Z,12.90
2019-05-19T03:02:39.201Z,12.90
2019-05-19T03:05:07.815Z,12.90
2019-05-19T03:07:36.390Z,12.80
2019-05-19T03:10:08.646Z,12.80
2019-05-19T03:12:37.071Z,12.80
2019-05-19T03:15:06.667Z,12.80
2019-05-19T03:17:35.094Z,12.80
2019-05-19T03:20:04.648Z,12.80
2019-05-19T03:22:34.711Z,12.80
2019-05-19T03:25:04.124Z,12.80
2019-05-19T03:27:32.556Z,12.70
2019-05-19T03:30:19.262Z,12.70
2019-05-19T03:32:49.435Z,12.70
2019-05-19T03:35:17.959Z,12.70
2019-05-19T03:37:46.468Z,12.70
2019-05-19T03:40:20.856Z,12.70
2019-05-19T03:42:52.263Z,12.70
2019-05-19T03:45:20.824Z,12.70
2019-05-19T03:47:49.349Z,12.70
2019-05-19T03:50:17.850Z,12.70
2019-05-19T03:52:46.299Z,12.70
2019-05-19T03:55:14.968Z,12.70
2019-05-19T03:57:43.423Z,12.70
2019-05-19T04:00:12.213Z,12.70
2019-05-19T04:02:40.732Z,12.70
2019-05-19T04:05:09.533Z,12.70
2019-05-19T04:07:38.051Z,12.70
2019-05-19T04:10:07.526Z,12.70
2019-05-19T04:12:35.990Z,12.70
2019-05-19T04:15:06.129Z,12.70
2019-05-19T04:17:34.584Z,12.70
2019-05-19T04:20:03.042Z,12.70
2019-05-19T04:22:31.531Z,12.70
2019-05-19T04:25:00.023Z,12.80
2019-05-19T04:27:28.480Z,12.80
2019-05-19T04:29:57.102Z,12.80
2019-05-19T04:32:25.619Z,12.80
2019-05-19T04:34:54.070Z,12.80
2019-05-19T04:37:22.496Z,12.80
2019-05-19T04:39:51.224Z,12.90
2019-05-19T04:42:19.667Z,12.90
2019-05-19T04:44:48.124Z,12.80
2019-05-19T04:47:16.553Z,12.80
2019-05-19T04:49:45.004Z,12.90
2019-05-19T04:52:13.438Z,12.90
2019-05-19T04:54:41.921Z,12.90
2019-05-19T04:57:10.357Z,13.00
2019-05-19T04:59:38.853Z,13.00
2019-05-19T05:02:07.285Z,13.10
2019-05-19T05:04:35.745Z,13.20
2019-05-19T05:07:04.445Z,13.30
2019-05-19T05:09:33.078Z,13.40
2019-05-19T05:12:01.627Z,13.60
2019-05-19T05:14:30.057Z,13.80
2019-05-19T05:16:58.503Z,13.90
2019-05-19T05:19:26.977Z,14.10
2019-05-19T05:21:55.417Z,14.40
2019-05-19T05:24:23.863Z,14.60
2019-05-19T05:26:52.321Z,14.70
2019-05-19T05:29:20.762Z,15.00
2019-05-19T05:31:49.203Z,15.10
2019-05-19T05:34:17.685Z,15.30
2019-05-19T05:36:46.132Z,15.40
2019-05-19T05:39:14.634Z,15.60
2019-05-19T05:41:43.099Z,15.60
2019-05-19T05:44:11.539Z,15.60
2019-05-19T05:46:39.993Z,15.50
2019-05-19T05:49:08.486Z,15.70
2019-05-19T05:51:36.967Z,15.60
2019-05-19T05:54:05.407Z,15.60
2019-05-19T05:56:33.863Z,15.70
2019-05-19T05:59:02.340Z,15.70
2019-05-19T06:01:30.817Z,15.80
2019-05-19T06:03:59.252Z,15.70
2019-05-19T06:06:27.710Z,15.80
2019-05-19T06:08:56.183Z,15.70
2019-05-19T06:11:24.648Z,15.60
2019-05-19T06:13:53.116Z,15.50
2019-05-19T06:16:21.575Z,15.60
2019-05-19T06:18:50.034Z,15.70
2019-05-19T06:21:18.480Z,16.00
2019-05-19T06:23:46.935Z,16.10
2019-05-19T06:26:15.445Z,16.30
2019-05-19T06:28:44.023Z,16.30
2019-05-19T06:31:12.971Z,16.30
2019-05-19T06:33:41.515Z,16.50
2019-05-19T06:36:10.421Z,16.40
2019-05-19T06:38:38.888Z,16.30
2019-05-19T06:41:07.413Z,16.30
2019-05-19T06:43:35.968Z,16.40
2019-05-19T06:46:04.474Z,16.60
2019-05-19T06:48:32.932Z,16.60
2019-05-19T06:51:01.383Z,16.70
2019-05-19T06:53:29.896Z,16.80
2019-05-19T06:55:58.332Z,17.10
2019-05-19T06:58:26.974Z,17.40
2019-05-19T07:00:57.275Z,17.40
2019-05-19T07:03:25.597Z,17.70
2019-05-19T07:05:54.076Z,18.00
2019-05-19T07:08:22.540Z,18.10
2019-05-19T07:10:50.974Z,18.20
2019-05-19T07:13:19.442Z,18.20
2019-05-19T07:15:48.053Z,18.30
2019-05-19T07:18:16.536Z,18.40
2019-05-19T07:20:45.059Z,18.50
2019-05-19T07:23:27.021Z,18.70
2019-05-19T07:25:43.995Z,19.00
2019-05-19T07:28:12.547Z,18.70
2019-05-19T07:30:41.056Z,18.80
2019-05-19T07:33:09.484Z,18.80
2019-05-19T07:35:37.956Z,18.90
2019-05-19T07:38:07.509Z,19.10
2019-05-19T07:40:36.288Z,19.30
2019-05-19T07:43:04.810Z,19.50
2019-05-19T07:45:33.438Z,19.60
2019-05-19T07:48:01.858Z,19.60
2019-05-19T07:50:30.359Z,19.70
2019-05-19T07:52:58.844Z,19.60
2019-05-19T07:55:27.342Z,19.90
2019-05-19T07:57:55.858Z,20.10
2019-05-19T08:00:24.328Z,20.30
2019-05-19T08:02:52.817Z,20.60
2019-05-19T08:05:21.364Z,20.80
2019-05-19T08:07:49.816Z,20.80
2019-05-19T08:10:18.499Z,20.70
2019-05-19T08:12:47.044Z,20.50
2019-05-19T08:15:15.955Z,20.30
2019-05-19T08:17:44.391Z,20.40
2019-05-19T08:20:13.627Z,20.60
2019-05-19T08:22:42.099Z,20.50
2019-05-19T08:25:10.943Z,20.50
2019-05-19T08:27:39.539Z,20.70
2019-05-19T08:30:08.360Z,20.70
2019-05-19T08:32:36.812Z,20.70
2019-05-19T08:35:06.920Z,20.80
2019-05-19T08:37:35.391Z,21.00
2019-05-19T08:40:04.767Z,21.10
2019-05-19T08:42:33.255Z,21.40
2019-05-19T08:45:01.808Z,21.70
2019-05-19T08:47:30.274Z,22.00
2019-05-19T08:49:58.719Z,21.80
2019-05-19T08:52:27.255Z,21.90
2019-05-19T08:54:55.694Z,21.80
2019-05-19T08:57:24.157Z,21.90
2019-05-19T08:59:52.842Z,21.10
2019-05-19T09:02:21.330Z,21.30
2019-05-19T09:04:49.833Z,21.30
2019-05-19T09:07:18.313Z,21.10
2019-05-19T09:09:46.903Z,21.10
2019-05-19T09:12:15.415Z,21.20
2019-05-19T09:14:43.874Z,21.40
2019-05-19T09:17:12.499Z,21.60
2019-05-19T09:19:40.975Z,21.00
2019-05-19T09:22:09.523Z,21.00
2019-05-19T09:24:38.047Z,20.90
2019-05-19T09:27:06.521Z,21.20
2019-05-19T09:29:34.956Z,21.30
2019-05-19T09:32:03.403Z,21.60
2019-05-19T09:34:31.847Z,21.70
2019-05-19T09:37:00.336Z,21.90
2019-05-19T09:39:28.800Z,21.20
2019-05-19T09:41:57.241Z,20.90
2019-05-19T09:44:25.836Z,21.10
2019-05-19T09:46:54.452Z,21.60
2019-05-19T09:49:32.110Z,21.40
2019-05-19T09:52:01.685Z,21.80
2019-05-19T09:54:42.763Z,22.20
2019-05-19T09:57:00.702Z,22.50
2019-05-19T09:59:29.980Z,22.90
2019-05-19T10:01:58.675Z,23.10
2019-05-19T10:04:27.147Z,23.40
2019-05-19T10:06:55.940Z,23.60
2019-05-19T10:09:49.675Z,23.80
2019-05-19T10:12:18.169Z,23.60
2019-05-19T10:14:46.643Z,23.50
2019-05-19T10:17:15.082Z,23.10
2019-05-19T10:19:43.668Z,23.20
2019-05-19T10:22:12.295Z,23.20
2019-05-19T10:24:40.987Z,23.10
2019-05-19T10:27:09.566Z,22.80
2019-05-19T10:29:38.116Z,22.60
2019-05-19T10:32:06.687Z,22.40
2019-05-19T10:34:36.118Z,22.20
2019-05-19T10:37:04.834Z,22.30
2019-05-19T10:39:33.428Z,22.10
2019-05-19T10:42:02.501Z,22.10
2019-05-19T10:44:31.456Z,22.20
2019-05-19T10:47:00.220Z,22.20
2019-05-19T10:49:28.723Z,22.40
2019-05-19T10:51:57.385Z,22.70
2019-05-19T10:54:25.843Z,22.70
2019-05-19T10:56:54.465Z,22.70
2019-05-19T10:59:22.878Z,22.70
2019-05-19T11:01:51.347Z,22.80
2019-05-19T11:04:19.865Z,22.60
2019-05-19T11:06:48.336Z,22.70
2019-05-19T11:09:16.787Z,23.00
2019-05-19T11:11:45.362Z,23.20
2019-05-19T11:14:13.817Z,23.20
2019-05-19T11:16:42.351Z,23.20
2019-05-19T11:19:10.794Z,23.00
2019-05-19T11:21:39.258Z,23.20
2019-05-19T11:24:07.687Z,23.40
2019-05-19T11:26:36.176Z,23.50
2019-05-19T11:29:05.674Z,23.80
2019-05-19T11:31:34.150Z,23.70
2019-05-19T11:34:02.586Z,23.40
2019-05-19T11:36:31.050Z,23.50
2019-05-19T11:38:59.711Z,23.40
2019-05-19T11:41:28.524Z,23.50
2019-05-19T11:43:57.272Z,23.50
2019-05-19T11:46:25.704Z,23.50
2019-05-19T11:48:54.177Z,23.60
2019-05-19T11:51:22.632Z,23.60
2019-05-19T11:53:51.100Z,24.20
2019-05-19T11:56:19.530Z,24.40
2019-05-19T11:58:48.085Z,24.50
2019-05-19T12:01:16.551Z,24.60
2019-05-19T12:03:45.215Z,24.90
2019-05-19T12:06:13.648Z,24.70
2019-05-19T12:08:42.135Z,24.70
2019-05-19T12:11:10.572Z,24.30
2019-05-19T12:13:39.132Z,24.70
2019-05-19T12:16:07.590Z,24.80
2019-05-19T12:18:36.095Z,25.00
2019-05-19T12:21:04.716Z,25.00
2019-05-19T12:23:33.266Z,25.00
2019-05-19T12:26:01.750Z,24.80
2019-05-19T12:28:31.845Z,25.00
2019-05-19T12:31:00.411Z,25.00
2019-05-19T12:33:28.868Z,25.00
2019-05-19T12:35:57.316Z,25.10
2019-05-19T12:38:25.864Z,25.00
2019-05-19T12:40:54.278Z,25.30
2019-05-19T12:43:22.759Z,25.30
2019-05-19T12:45:51.505Z,25.40
2019-05-19T12:48:20.366Z,25.50
2019-05-19T12:50:48.917Z,25.70
2019-05-19T12:53:17.437Z,25.50
2019-05-19T12:55:45.894Z,25.50
2019-05-19T12:58:14.331Z,25.20
2019-05-19T13:00:42.798Z,25.30
2019-05-19T13:03:11.392Z,25.30
2019-05-19T13:05:39.868Z,25.60
2019-05-19T13:08:11.389Z,25.40
2019-05-19T13:10:38.555Z,25.30
2019-05-19T13:13:07.062Z,25.40
2019-05-19T13:15:35.536Z,25.40
2019-05-19T13:18:04.128Z,24.90
2019-05-19T13:20:32.587Z,25.10
2019-05-19T13:23:01.014Z,24.60
2019-05-19T13:25:29.505Z,23.60
2019-05-19T13:27:57.931Z,22.40
2019-05-19T13:30:26.446Z,21.60
2019-05-19T13:32:55.060Z,21.20
2019-05-19T13:35:23.731Z,20.70
2019-05-19T13:37:52.192Z,20.10
2019-05-19T13:40:20.821Z,19.70
2019-05-19T13:42:49.272Z,19.60
2019-05-19T13:45:18.008Z,19.50
2019-05-19T13:47:46.583Z,19.30
2019-05-19T13:50:15.385Z,19.10
2019-05-19T13:52:43.921Z,19.00
2019-05-19T13:55:12.902Z,18.50
2019-05-19T13:57:41.490Z,18.00
2019-05-19T14:00:10.824Z,17.60
2019-05-19T14:02:39.755Z,17.00
2019-05-19T14:05:09.013Z,16.60
2019-05-19T14:07:37.539Z,16.30
2019-05-19T14:10:07.889Z,15.90
2019-05-19T14:12:36.552Z,15.60
2019-05-19T14:15:06.434Z,15.50
2019-05-19T14:17:34.982Z,15.40
2019-05-19T14:20:05.255Z,15.40
2019-05-19T14:22:33.719Z,15.40
2019-05-19T14:25:02.149Z,15.40
2019-05-19T14:27:31.063Z,15.30
2019-05-19T14:29:59.694Z,15.30
2019-05-19T14:32:28.170Z,15.40
2019-05-19T14:34:56.619Z,15.40
2019-05-19T14:37:25.076Z,15.30
2019-05-19T14:39:53.584Z,15.30
2019-05-19T14:42:40.035Z,15.30
2019-05-19T14:45:09.095Z,15.20
2019-05-19T14:47:37.623Z,15.20
2019-05-19T14:50:06.600Z,15.20
2019-05-19T14:52:35.107Z,15.20
2019-05-19T14:55:04.010Z,15.30
2019-05-19T14:57:43.927Z,15.30
2019-05-19T15:00:03.208Z,15.30
2019-05-19T15:02:31.736Z,15.30
2019-05-19T15:05:00.227Z,15.30
2019-05-19T15:07:28.675Z,15.40
2019-05-19T15:09:57.229Z,15.40
2019-05-19T15:12:26.228Z,15.40
2019-05-19T15:14:54.717Z,15.40
2019-05-19T15:17:23.247Z,15.40
2019-05-19T15:19:51.718Z,15.30
2019-05-19T15:22:20.271Z,15.30
2019-05-19T15:24:48.764Z,15.30
2019-05-19T15:27:17.208Z,15.30
2019-05-19T15:29:45.689Z,15.30
2019-05-19T15:32:14.129Z,15.30
2019-05-19T15:34:42.670Z,15.40
2019-05-19T15:37:11.201Z,15.40
2019-05-19T15:39:39.724Z,15.40
2019-05-19T15:42:08.158Z,15.50
2019-05-19T15:44:36.696Z,15.50
2019-05-19T15:47:05.134Z,15.50
2019-05-19T15:49:33.598Z,15.50
2019-05-19T15:52:04.808Z,15.60
2019-05-19T15:54:32.410Z,15.60
2019-05-19T15:57:00.871Z,15.70
2019-05-19T15:59:29.352Z,15.70
2019-05-19T16:01:57.827Z,15.70
2019-05-19T16:04:26.276Z,15.70
2019-05-19T16:06:54.803Z,15.70
2019-05-19T16:09:23.240Z,15.70
2019-05-19T16:11:51.700Z,15.80
2019-05-19T16:14:20.167Z,15.90
2019-05-19T16:16:48.629Z,16.00
2019-05-19T16:19:17.066Z,16.00
2019-05-19T16:21:45.528Z,16.00
2019-05-19T16:24:14.052Z,16.00
2019-05-19T16:26:42.496Z,15.90
2019-05-19T16:29:10.950Z,15.90
2019-05-19T16:31:39.416Z,16.00
2019-05-19T16:34:07.853Z,16.10
2019-05-19T16:36:36.342Z,16.10
2019-05-19T16:39:07.009Z,16.20
2019-05-19T16:41:35.547Z,16.30
2019-05-19T16:44:04.256Z,16.30
2019-05-19T16:46:32.731Z,16.30
2019-05-19T16:49:01.220Z,16.40
2019-05-19T16:51:29.778Z,16.50
2019-05-19T16:53:59.983Z,16.50
2019-05-19T16:56:28.449Z,16.50
2019-05-19T16:58:56.885Z,16.40
2019-05-19T17:01:25.375Z,16.50
2019-05-19T17:03:53.855Z,16.50
2019-05-19T17:06:22.280Z,16.40
2019-05-19T17:08:50.737Z,16.40
2019-05-19T17:11:19.179Z,16.40
2019-05-19T17:13:47.645Z,16.40
2019-05-19T17:16:16.168Z,16.40
2019-05-19T17:18:44.910Z,16.50
2019-05-19T17:21:13.478Z,16.50
2019-05-19T17:23:41.982Z,16.50
2019-05-19T17:26:10.489Z,16.40
2019-05-19T17:28:39.035Z,16.20
2019-05-19T17:31:07.838Z,16.20
2019-05-19T17:33:36.616Z,16.10
2019-05-19T17:36:05.111Z,16.00
2019-05-19T17:38:33.600Z,15.90
2019-05-19T17:41:02.038Z,15.70
2019-05-19T17:43:30.514Z,15.70
2019-05-19T17:45:58.953Z,15.70
2019-05-19T17:48:27.461Z,15.70
2019-05-19T17:50:55.980Z,15.70
2019-05-19T17:53:24.490Z,15.60
2019-05-19T17:55:54.251Z,15.70
2019-05-19T17:58:23.631Z,15.70
2019-05-19T18:00:52.318Z,15.70
2019-05-19T18:03:21.215Z,15.80
2019-05-19T18:05:49.907Z,15.70
2019-05-19T18:08:18.400Z,15.80
2019-05-19T18:10:46.871Z,15.80
2019-05-19T18:13:15.415Z,15.90
2019-05-19T18:15:44.085Z,15.80
2019-05-19T18:18:13.045Z,15.80
2019-05-19T18:20:41.514Z,15.80
2019-05-19T18:23:09.973Z,15.70
2019-05-19T18:25:38.517Z,15.60
2019-05-19T18:28:06.975Z,15.60
2019-05-19T18:30:35.447Z,15.50
2019-05-19T18:33:03.872Z,15.40
2019-05-19T18:35:32.484Z,15.40
2019-05-19T18:38:01.100Z,15.30
2019-05-19T18:40:29.733Z,15.30
2019-05-19T18:42:58.186Z,15.30
2019-05-19T18:45:26.766Z,15.30
2019-05-19T18:47:55.289Z,15.20
2019-05-19T18:50:23.887Z,15.20
2019-05-19T18:52:52.442Z,15.10
2019-05-19T18:55:20.907Z,15.10
2019-05-19T18:57:49.526Z,15.10
2019-05-19T19:00:32.575Z,15.10
2019-05-19T19:03:01.200Z,15.00
2019-05-19T19:05:29.698Z,15.00
2019-05-19T19:07:58.586Z,15.00
2019-05-19T19:10:27.079Z,15.00
2019-05-19T19:12:55.540Z,15.10
2019-05-19T19:15:24.224Z,15.10
2019-05-19T19:17:52.837Z,15.10
2019-05-19T19:20:21.630Z,15.10
2019-05-19T19:22:50.111Z,15.10
2019-05-19T19:25:18.563Z,15.10
2019-05-19T19:27:47.062Z,15.10
2019-05-19T19:30:15.837Z,15.10
2019-05-19T19:32:44.391Z,15.10
2019-05-19T19:35:13.055Z,15.10
2019-05-19T19:37:41.530Z,15.10
2019-05-19T19:40:10.384Z,15.10
2019-05-19T19:42:39.035Z,15.10
2019-05-19T19:45:07.726Z,15.10
2019-05-19T19:47:36.243Z,15.10
2019-05-19T19:50:06.905Z,15.20
2019-05-19T19:52:35.399Z,15.10
2019-05-19T19:55:05.239Z,15.10
2019-05-19T19:57:33.712Z,15.10
2019-05-19T20:00:02.283Z,15.10
2019-05-19T20:02:30.710Z,15.10
2019-05-19T20:04:59.259Z,15.00
2019-05-19T20:07:27.765Z,15.00
2019-05-19T20:09:56.304Z,14.90
2019-05-19T20:12:25.111Z,14.90
2019-05-19T20:14:53.640Z,14.90
2019-05-19T20:17:22.100Z,14.90
2019-05-19T20:19:50.647Z,14.90
2019-05-19T20:22:19.072Z,14.90
2019-05-19T20:24:47.526Z,14.80
2019-05-19T20:27:15.978Z,14.80
2019-05-19T20:29:44.447Z,14.80
2019-05-19T20:32:12.890Z,14.70
2019-05-19T20:34:41.396Z,14.70
2019-05-19T20:37:09.954Z,14.70
2019-05-19T20:39:38.479Z,14.60
2019-05-19T20:42:06.919Z,14.60
2019-05-19T20:44:35.439Z,14.50
2019-05-19T20:47:03.864Z,14.50
2019-05-19T20:49:32.360Z,14.50
2019-05-19T20:52:00.800Z,14.40
2019-05-19T20:54:29.265Z,14.40
2019-05-19T20:56:57.774Z,14.30
2019-05-19T20:59:26.228Z,14.30
2019-05-19T21:01:54.705Z,14.20
2019-05-19T21:04:23.277Z,14.20
2019-05-19T21:06:51.716Z,14.10
2019-05-19T21:09:20.299Z,14.00
2019-05-19T21:11:48.776Z,14.00
2019-05-19T21:14:17.473Z,14.00
2019-05-19T21:16:46.070Z,13.90
2019-05-19T21:19:14.523Z,13.90
2019-05-19T21:21:43.003Z,13.80
2019-05-19T21:24:11.471Z,13.80
2019-05-19T21:26:39.991Z,13.80
2019-05-19T21:29:08.449Z,13.80
2019-05-19T21:31:37.001Z,13.80
2019-05-19T21:34:05.434Z,13.70
2019-05-19T21:36:33.888Z,13.70
2019-05-19T21:39:02.319Z,13.70
2019-05-19T21:41:30.799Z,13.70
2019-05-19T21:43:59.292Z,13.60
2019-05-19T21:46:27.797Z,13.60
2019-05-19T21:48:56.242Z,13.60
2019-05-19T21:51:24.713Z,13.50
2019-05-19T21:53:53.445Z,13.50
2019-05-19T21:56:22.051Z,13.50
2019-05-19T21:58:50.488Z,13.50
2019-05-19T22:01:23.295Z,13.40
2019-05-19T22:03:49.520Z,13.40
2019-05-19T22:06:21.468Z,13.30
2019-05-19T22:08:49.962Z,13.40
2019-05-19T22:11:18.444Z,13.40
2019-05-19T22:13:46.865Z,13.30
2019-05-19T22:16:15.291Z,13.30
2019-05-19T22:18:43.851Z,13.30
2019-05-19T22:21:12.312Z,13.20
2019-05-19T22:23:40.842Z,13.20
2019-05-19T22:26:09.340Z,13.10
2019-05-19T22:28:37.788Z,13.10
2019-05-19T22:31:06.247Z,13.10
2019-05-19T22:33:34.697Z,13.10
2019-05-19T22:36:03.178Z,13.10
2019-05-19T22:38:31.700Z,13.10
2019-05-19T22:41:00.251Z,13.10
2019-05-19T22:43:29.085Z,13.00
2019-05-19T22:45:57.672Z,13.00
2019-05-19T22:48:26.152Z,12.90
2019-05-19T22:50:54.589Z,12.90
2019-05-19T22:53:23.069Z,12.90
2019-05-19T22:55:51.640Z,12.90
2019-05-19T22:58:20.201Z,12.80
2019-05-19T23:00:48.627Z,12.80
2019-05-19T23:03:17.093Z,12.80
2019-05-19T23:05:45.540Z,12.80
2019-05-19T23:08:14.028Z,12.80
2019-05-19T23:10:42.662Z,12.80
2019-05-19T23:13:11.139Z,12.80
2019-05-19T23:15:39.673Z,12.70
2019-05-19T23:18:08.133Z,12.70
2019-05-19T23:20:36.665Z,12.70
2019-05-19T23:23:05.109Z,12.80
2019-05-19T23:25:33.578Z,12.80
2019-05-19T23:28:01.993Z,12.80
2019-05-19T23:30:30.454Z,12.80
2019-05-19T23:32:58.899Z,12.70
2019-05-19T23:35:27.359Z,12.80
2019-05-19T23:37:55.820Z,12.80
2019-05-19T23:40:24.286Z,12.70
2019-05-19T23:42:52.779Z,12.70
2019-05-19T23:45:21.235Z,12.70
2019-05-19T23:47:49.715Z,12.70
2019-05-19T23:50:18.620Z,12.60
2019-05-19T23:52:47.058Z,12.60
2019-05-19T23:55:15.966Z,12.50
2019-05-19T23:57:44.457Z,12.50
